createdAt,value
2023-03-02T00:01:25.995Z,13.63
2023-03-02T00:03:54.382Z,13.47
2023-03-02T00:06:22.684Z,14.23
2023-03-02T00:08:50.889Z,15.30
2023-03-02T00:11:19.157Z,16.10
2023-03-02T00:13:47.437Z,15.40
2023-03-02T00:16:17.081Z,17.90
2023-03-02T00:18:45.351Z,17.77
2023-03-02T00:21:13.538Z,19.13
2023-03-02T00:23:41.777Z,19.77
2023-03-02T00:26:10.043Z,18.33
2023-03-02T00:28:38.329Z,21.27
2023-03-02T00:31:06.989Z,21.43
2023-03-02T00:33:36.700Z,21.43
2023-03-02T00:36:05.130Z,23.07
2023-03-02T00:38:33.397Z,22.70
2023-03-02T00:41:01.552Z,23.93
2023-03-02T00:43:29.744Z,24.23
2023-03-02T00:45:58.997Z,25.03
2023-03-02T00:48:27.180Z,25.37
2023-03-02T00:50:56.738Z,25.33
2023-03-02T00:53:25.046Z,25.83
2023-03-02T00:55:56.630Z,27.13
2023-03-02T00:58:24.918Z,26.27
2023-03-02T01:00:53.154Z,25.13
2023-03-02T01:03:21.566Z,26.23
2023-03-02T01:05:49.942Z,27.13
2023-03-02T01:08:19.572Z,26.00
2023-03-02T01:10:47.831Z,26.60
2023-03-02T01:13:16.082Z,27.63
2023-03-02T01:15:44.253Z,26.10
2023-03-02T01:18:13.158Z,26.97
2023-03-02T01:20:41.351Z,27.50
2023-03-02T01:23:09.554Z,26.50
2023-03-02T01:25:39.811Z,27.27
2023-03-02T01:28:08.004Z,25.83
2023-03-02T01:30:36.275Z,27.40
2023-03-02T01:33:04.555Z,26.67
2023-03-02T01:35:32.889Z,26.50
2023-03-02T01:38:01.179Z,28.13
2023-03-02T01:40:29.377Z,28.17
2023-03-02T01:43:02.324Z,25.87
2023-03-02T01:45:47.814Z,27.03
2023-03-02T01:48:17.525Z,27.87
2023-03-02T01:50:46.433Z,28.00
2023-03-02T01:53:15.998Z,26.63
2023-03-02T01:55:45.009Z,27.87
2023-03-02T01:58:15.450Z,26.47
2023-03-02T02:00:44.212Z,27.37
2023-03-02T02:03:13.517Z,26.77
2023-03-02T02:05:42.848Z,25.70
2023-03-02T02:08:11.579Z,27.10
2023-03-02T02:10:40.317Z,26.17
2023-03-02T02:13:11.660Z,26.97
2023-03-02T02:15:42.110Z,25.97
2023-03-02T02:18:10.744Z,25.20
2023-03-02T02:20:39.862Z,26.80
2023-03-02T02:23:15.887Z,25.50
2023-03-02T02:25:47.357Z,24.60
2023-03-02T02:28:20.314Z,26.13
2023-03-02T02:30:50.526Z,25.57
2023-03-02T02:33:21.079Z,24.33
2023-03-02T02:35:49.734Z,25.97
2023-03-02T02:38:19.237Z,25.20
2023-03-02T02:40:50.072Z,26.27
2023-03-02T02:43:20.905Z,25.70
2023-03-02T02:45:50.241Z,25.17
2023-03-02T02:48:21.207Z,26.90
2023-03-02T02:50:49.464Z,26.33
2023-03-02T02:53:20.033Z,25.93
2023-03-02T02:55:50.065Z,25.17
2023-03-02T02:58:27.203Z,26.33
2023-03-02T03:00:55.586Z,25.30
2023-03-02T03:03:30.822Z,26.27
2023-03-02T03:05:59.504Z,27.23
2023-03-02T03:08:46.205Z,26.30
2023-03-02T03:11:15.310Z,26.40
2023-03-02T03:13:45.290Z,26.50
2023-03-02T03:16:16.371Z,27.03
2023-03-02T03:18:45.380Z,25.63
2023-03-02T03:21:13.616Z,27.33
2023-03-02T03:23:41.801Z,26.67
2023-03-02T03:26:09.975Z,26.27
2023-03-02T03:28:38.306Z,27.63
2023-03-02T03:31:08.022Z,26.23
2023-03-02T03:33:36.245Z,26.30
2023-03-02T03:36:04.419Z,27.27
2023-03-02T03:38:32.645Z,26.90
2023-03-02T03:41:00.788Z,26.23
2023-03-02T03:43:29.014Z,24.87
2023-03-02T03:45:57.176Z,26.20
2023-03-02T03:48:26.763Z,24.90
2023-03-02T03:50:54.898Z,25.83
2023-03-02T03:53:23.136Z,27.20
2023-03-02T03:55:51.583Z,25.67
2023-03-02T03:58:19.738Z,25.30
2023-03-02T04:00:47.985Z,26.07
2023-03-02T04:03:16.286Z,25.40
2023-03-02T04:05:45.818Z,25.33
2023-03-02T04:08:14.615Z,26.87
2023-03-02T04:10:43.007Z,24.70
2023-03-02T04:13:11.209Z,25.47
2023-03-02T04:15:39.919Z,24.07
2023-03-02T04:18:08.122Z,24.27
2023-03-02T04:20:36.326Z,25.37
2023-03-02T04:23:05.850Z,25.73
2023-03-02T04:25:34.010Z,25.20
2023-03-02T04:28:02.153Z,24.17
2023-03-02T04:30:30.348Z,25.13
2023-03-02T04:32:58.496Z,25.17
2023-03-02T04:35:26.907Z,25.80
2023-03-02T04:37:55.097Z,25.40
2023-03-02T04:40:24.696Z,24.93
2023-03-02T04:42:52.884Z,25.67
2023-03-02T04:45:21.228Z,25.30
2023-03-02T04:47:49.436Z,24.40
2023-03-02T04:50:17.664Z,25.13
2023-03-02T04:52:45.827Z,23.80
2023-03-02T04:55:19.490Z,24.43
2023-03-02T04:57:49.101Z,26.63
2023-03-02T05:00:19.251Z,24.23
2023-03-02T05:02:47.559Z,23.93
2023-03-02T05:05:18.089Z,24.63
2023-03-02T05:07:46.379Z,24.33
2023-03-02T05:10:15.274Z,24.47
2023-03-02T05:12:58.049Z,23.40
2023-03-02T05:15:29.198Z,23.93
2023-03-02T05:17:57.537Z,24.67
2023-03-02T05:20:30.455Z,22.87
2023-03-02T05:22:59.695Z,24.33
2023-03-02T05:25:28.753Z,23.87
2023-03-02T05:27:57.317Z,23.33
2023-03-02T05:30:25.538Z,24.30
2023-03-02T05:32:55.671Z,23.73
2023-03-02T05:35:24.196Z,24.70
2023-03-02T05:37:52.617Z,24.57
2023-03-02T05:40:21.690Z,23.30
2023-03-02T05:42:50.669Z,22.97
2023-03-02T05:45:20.374Z,22.73
2023-03-02T05:47:48.698Z,23.97
2023-03-02T05:50:18.334Z,23.77
2023-03-02T05:52:46.581Z,22.90
2023-03-02T05:55:15.021Z,22.63
2023-03-02T05:57:43.315Z,23.83
2023-03-02T06:00:12.559Z,21.40
2023-03-02T06:02:40.916Z,21.73
2023-03-02T06:05:10.103Z,19.97
2023-03-02T06:07:39.847Z,21.97
2023-03-02T06:10:08.969Z,21.37
2023-03-02T06:12:37.185Z,20.90
2023-03-02T06:15:05.931Z,21.53
2023-03-02T06:17:34.380Z,21.20
2023-03-02T06:20:03.970Z,21.93
2023-03-02T06:22:32.225Z,20.37
2023-03-02T06:25:01.736Z,20.40
2023-03-02T06:27:29.883Z,21.13
2023-03-02T06:29:58.285Z,21.37
2023-03-02T06:32:26.625Z,20.37
2023-03-02T06:34:54.909Z,21.73
2023-03-02T06:37:23.068Z,21.27
2023-03-02T06:39:51.265Z,20.40
2023-03-02T06:42:20.818Z,21.83
2023-03-02T06:44:49.782Z,20.93
2023-03-02T06:47:17.952Z,21.17
2023-03-02T06:49:46.153Z,22.10
2023-03-02T06:52:14.500Z,21.40
2023-03-02T06:54:42.653Z,19.83
2023-03-02T06:57:10.914Z,21.33
2023-03-02T06:59:40.472Z,19.80
2023-03-02T07:02:08.732Z,19.37
2023-03-02T07:04:36.885Z,20.70
2023-03-02T07:07:05.119Z,19.80
2023-03-02T07:09:34.288Z,19.97
2023-03-02T07:12:02.417Z,20.00
2023-03-02T07:14:30.626Z,20.93
2023-03-02T07:17:00.291Z,21.37
2023-03-02T07:19:28.543Z,19.60
2023-03-02T07:21:56.722Z,20.60
2023-03-02T07:24:24.873Z,22.10
2023-03-02T07:26:53.224Z,20.57
2023-03-02T07:29:21.357Z,20.33
2023-03-02T07:31:49.521Z,21.50
2023-03-02T07:34:19.010Z,21.70
2023-03-02T07:36:47.217Z,20.30
2023-03-02T07:39:15.354Z,21.20
2023-03-02T07:41:43.532Z,20.17
2023-03-02T07:44:11.709Z,20.03
2023-03-02T07:46:40.020Z,19.93
2023-03-02T07:49:08.283Z,20.17
2023-03-02T07:51:37.779Z,20.67
2023-03-02T07:54:06.020Z,20.93
2023-03-02T07:56:34.295Z,20.20
2023-03-02T07:59:02.701Z,19.70
2023-03-02T08:01:31.335Z,20.57
2023-03-02T08:03:59.734Z,19.80
2023-03-02T08:06:28.008Z,21.23
2023-03-02T08:08:57.628Z,19.80
2023-03-02T08:11:25.831Z,20.40
2023-03-02T08:13:53.962Z,19.57
2023-03-02T08:16:22.481Z,19.93
2023-03-02T08:18:50.678Z,19.20
2023-03-02T08:21:20.231Z,21.07
2023-03-02T08:23:48.903Z,20.47
2023-03-02T08:26:18.531Z,20.63
2023-03-02T08:28:47.091Z,18.80
2023-03-02T08:31:15.826Z,19.90
2023-03-02T08:33:46.001Z,20.23
2023-03-02T08:36:15.046Z,19.47
2023-03-02T08:38:43.300Z,19.90
2023-03-02T08:41:13.352Z,19.87
2023-03-02T08:43:42.858Z,19.37
2023-03-02T08:46:12.275Z,19.00
2023-03-02T08:48:40.483Z,19.17
2023-03-02T08:51:09.811Z,18.97
2023-03-02T08:53:39.147Z,18.63
2023-03-02T08:56:08.630Z,18.47
2023-03-02T08:58:36.822Z,19.07
2023-03-02T09:01:06.567Z,18.43
2023-03-02T09:03:34.750Z,19.23
2023-03-02T09:06:02.905Z,19.10
2023-03-02T09:08:31.154Z,19.53
2023-03-02T09:10:59.337Z,19.27
2023-03-02T09:13:27.528Z,18.50
2023-03-02T09:15:55.993Z,17.80
2023-03-02T09:18:25.473Z,18.50
2023-03-02T09:20:53.916Z,18.63
2023-03-02T09:23:22.255Z,16.47
2023-03-02T09:25:50.434Z,15.50
2023-03-02T09:28:18.916Z,16.13
2023-03-02T09:30:49.831Z,14.83
2023-03-02T09:33:18.092Z,15.13
2023-03-02T09:35:48.095Z,15.20
2023-03-02T09:38:17.107Z,14.73
2023-03-02T09:40:52.194Z,14.50
2023-03-02T09:43:26.459Z,14.37
2023-03-02T09:46:00.201Z,13.47
2023-03-02T09:48:39.246Z,13.97
2023-03-02T09:51:20.270Z,12.67
2023-03-02T09:53:49.107Z,13.70
2023-03-02T09:56:19.456Z,14.20
2023-03-02T09:58:50.276Z,13.97
2023-03-02T10:01:23.685Z,14.10
2023-03-02T10:03:54.340Z,13.53
2023-03-02T10:06:24.005Z,13.53
2023-03-02T10:08:52.161Z,12.97
2023-03-02T10:11:24.079Z,13.27
2023-03-02T10:13:55.519Z,12.57
2023-03-02T10:16:28.829Z,13.00
2023-03-02T10:19:05.218Z,12.33
2023-03-02T10:21:38.270Z,11.63
2023-03-02T10:24:11.504Z,12.73
2023-03-02T10:26:41.243Z,12.07
2023-03-02T10:29:20.523Z,12.73
2023-03-02T10:31:52.745Z,14.00
2023-03-02T10:34:27.967Z,12.17
2023-03-02T10:36:57.772Z,12.93
2023-03-02T10:39:26.015Z,12.07
2023-03-02T10:41:56.952Z,12.53
2023-03-02T10:44:26.669Z,11.77
2023-03-02T10:46:54.808Z,11.93
2023-03-02T10:49:27.348Z,11.80
2023-03-02T10:52:01.006Z,11.97
2023-03-02T10:54:29.815Z,11.50
2023-03-02T10:56:59.129Z,11.60
2023-03-02T10:59:36.855Z,12.17
2023-03-02T11:02:10.807Z,11.97
2023-03-02T11:04:39.044Z,11.67
2023-03-02T11:07:13.085Z,11.20
2023-03-02T11:09:41.366Z,12.20
2023-03-02T11:12:14.942Z,11.47
2023-03-02T11:14:43.572Z,12.00
2023-03-02T11:17:32.722Z,11.80
2023-03-02T11:20:01.726Z,11.40
2023-03-02T11:22:34.725Z,10.97
2023-03-02T11:25:05.165Z,11.77
2023-03-02T11:27:37.117Z,11.80
2023-03-02T11:30:06.546Z,11.10
2023-03-02T11:32:38.737Z,11.43
2023-03-02T11:35:11.155Z,12.10
2023-03-02T11:37:44.333Z,12.40
2023-03-02T11:40:20.858Z,12.17
2023-03-02T11:42:49.337Z,11.63
2023-03-02T11:45:19.265Z,12.00
2023-03-02T11:47:57.521Z,11.97
2023-03-02T11:50:29.511Z,12.57
2023-03-02T11:53:01.869Z,12.43
2023-03-02T11:55:31.126Z,12.43
2023-03-02T12:00:32.858Z,12.60
2023-03-02T12:03:02.234Z,12.13
2023-03-02T12:05:32.218Z,12.37
2023-03-02T12:08:02.687Z,12.80
2023-03-02T12:10:33.395Z,13.63
2023-03-02T12:13:04.761Z,12.57
2023-03-02T12:15:40.684Z,12.90
2023-03-02T12:18:27.467Z,12.80
2023-03-02T12:21:03.999Z,12.47
2023-03-02T12:23:34.698Z,13.23
2023-03-02T12:26:04.382Z,12.53
2023-03-02T12:28:35.322Z,13.40
2023-03-02T12:31:07.371Z,12.90
2023-03-02T12:33:40.043Z,12.33
2023-03-02T12:36:13.430Z,12.83
2023-03-02T12:38:47.910Z,11.77
2023-03-02T12:41:35.681Z,13.13
2023-03-02T12:44:09.972Z,12.77
2023-03-02T12:46:40.317Z,14.57
2023-03-02T12:49:27.177Z,12.67
2023-03-02T12:51:56.410Z,13.63
2023-03-02T12:54:26.740Z,14.40
2023-03-02T12:57:04.100Z,12.57
2023-03-02T12:59:32.310Z,13.53
2023-03-02T13:02:07.792Z,14.17
2023-03-02T13:04:35.958Z,13.93
2023-03-02T13:07:04.174Z,13.13
2023-03-02T13:09:33.893Z,13.20
2023-03-02T13:12:02.200Z,13.33
2023-03-02T13:14:30.927Z,13.53
2023-03-02T13:17:00.179Z,13.23
2023-03-02T13:19:30.667Z,13.03
2023-03-02T13:21:59.910Z,13.07
2023-03-02T13:24:37.683Z,13.90
2023-03-02T13:27:07.925Z,13.40
2023-03-02T13:29:36.357Z,13.93
2023-03-02T13:32:25.542Z,14.30
2023-03-02T13:34:54.686Z,13.57
2023-03-02T13:37:37.577Z,12.43
2023-03-02T13:40:08.679Z,11.97
2023-03-02T13:42:37.874Z,13.00
2023-03-02T13:45:25.315Z,12.10
2023-03-02T13:47:53.949Z,12.87
2023-03-02T13:50:23.650Z,12.60
2023-03-02T13:52:52.423Z,12.23
2023-03-02T13:55:23.030Z,12.87
2023-03-02T13:57:52.897Z,13.10
2023-03-02T14:00:22.613Z,12.07
2023-03-02T14:02:51.405Z,12.30
2023-03-02T14:05:20.526Z,12.33
2023-03-02T14:07:49.104Z,12.83
2023-03-02T14:10:18.259Z,12.07
2023-03-02T14:12:54.311Z,13.37
2023-03-02T14:15:22.632Z,13.70
2023-03-02T14:17:50.935Z,13.50
2023-03-02T14:20:20.039Z,13.07
2023-03-02T14:22:48.663Z,11.60
2023-03-02T14:25:16.855Z,12.73
2023-03-02T14:27:47.149Z,12.97
2023-03-02T14:30:19.195Z,13.43
2023-03-02T14:32:47.735Z,13.37
2023-03-02T14:35:16.772Z,12.17
2023-03-02T14:37:46.035Z,12.13
2023-03-02T14:40:18.946Z,11.77
2023-03-02T14:42:47.139Z,12.70
2023-03-02T14:45:17.229Z,12.60
2023-03-02T14:47:45.394Z,12.93
2023-03-02T14:50:14.212Z,13.37
2023-03-02T14:52:43.101Z,13.47
2023-03-02T14:55:15.103Z,12.37
2023-03-02T14:57:43.339Z,13.23
2023-03-02T15:00:15.195Z,12.80
2023-03-02T15:02:44.873Z,14.10
2023-03-02T15:05:13.095Z,12.43
2023-03-02T15:07:41.320Z,13.67
2023-03-02T15:10:10.906Z,13.40
2023-03-02T15:12:39.063Z,13.20
2023-03-02T15:15:07.612Z,12.07
2023-03-02T15:17:35.809Z,12.10
2023-03-02T15:20:06.075Z,13.10
2023-03-02T15:22:34.289Z,14.30
2023-03-02T15:25:02.470Z,13.77
2023-03-02T15:27:30.670Z,13.97
2023-03-02T15:29:58.887Z,12.73
2023-03-02T15:32:27.060Z,12.47
2023-03-02T15:34:55.315Z,12.50
2023-03-02T15:37:24.957Z,12.53
2023-03-02T15:39:55.197Z,12.87
2023-03-02T15:42:23.563Z,12.87
2023-03-02T15:44:51.739Z,13.13
2023-03-02T15:47:20.088Z,12.30
2023-03-02T15:49:48.264Z,12.37
2023-03-02T15:52:16.437Z,13.00
2023-03-02T15:54:45.943Z,13.30
2023-03-02T15:57:14.177Z,13.33
2023-03-02T15:59:43.606Z,12.73
2023-03-02T16:02:11.943Z,12.63
2023-03-02T16:04:40.157Z,12.53
2023-03-02T16:07:08.373Z,11.80
2023-03-02T16:09:36.570Z,12.37
2023-03-02T16:12:06.397Z,12.07
2023-03-02T16:14:35.345Z,11.97
2023-03-02T16:17:03.547Z,11.83
2023-03-02T16:19:32.250Z,10.93
2023-03-02T16:22:00.432Z,11.63
2023-03-02T16:24:28.598Z,11.10
2023-03-02T16:26:57.956Z,11.90
2023-03-02T16:29:27.521Z,11.37
2023-03-02T16:31:55.728Z,11.67
2023-03-02T16:34:23.976Z,12.30
2023-03-02T16:36:52.298Z,11.77
2023-03-02T16:39:20.492Z,12.23
2023-03-02T16:41:48.739Z,12.40
2023-03-02T16:44:17.059Z,13.43
2023-03-02T16:46:46.749Z,12.10
2023-03-02T16:49:15.538Z,12.83
2023-03-02T16:51:44.307Z,12.37
2023-03-02T16:54:12.865Z,13.70
2023-03-02T16:56:45.015Z,13.83
2023-03-02T16:59:13.220Z,13.57
2023-03-02T17:01:41.474Z,13.73
2023-03-02T17:04:11.214Z,14.60
2023-03-02T17:06:41.712Z,15.03
2023-03-02T17:09:12.501Z,13.87
2023-03-02T17:11:41.612Z,14.90
2023-03-02T17:14:09.863Z,15.70
2023-03-02T17:16:41.423Z,15.33
2023-03-02T17:19:11.037Z,13.27
2023-03-02T17:21:39.308Z,13.73
2023-03-02T17:24:07.662Z,14.60
2023-03-02T17:26:35.865Z,14.23
2023-03-02T17:29:04.019Z,14.47
2023-03-02T17:31:32.393Z,13.57
2023-03-02T17:34:00.603Z,13.73
2023-03-02T17:36:30.435Z,14.20
2023-03-02T17:38:58.666Z,14.07
2023-03-02T17:41:26.797Z,14.63
2023-03-02T17:43:55.010Z,14.27
2023-03-02T17:46:25.422Z,14.90
2023-03-02T17:48:55.138Z,14.90
2023-03-02T17:51:23.741Z,13.67
2023-03-02T17:53:54.380Z,14.13
2023-03-02T17:56:24.993Z,15.23
2023-03-02T17:58:53.855Z,13.93
2023-03-02T18:01:22.131Z,13.70
2023-03-02T18:03:50.437Z,14.27
2023-03-02T18:06:20.587Z,14.13
2023-03-02T18:08:49.467Z,13.67
2023-03-02T18:11:20.094Z,13.53
2023-03-02T18:13:48.620Z,14.30
2023-03-02T18:16:16.903Z,13.80
2023-03-02T18:18:45.098Z,13.27
2023-03-02T18:21:13.309Z,14.67
2023-03-02T18:23:41.936Z,13.67
2023-03-02T18:26:10.161Z,13.70
2023-03-02T18:28:39.945Z,13.50
2023-03-02T18:31:08.774Z,14.87
2023-03-02T18:33:38.259Z,13.67
2023-03-02T18:36:06.693Z,15.20
2023-03-02T18:38:35.559Z,15.13
2023-03-02T18:41:04.621Z,14.47
2023-03-02T18:43:34.673Z,14.33
2023-03-02T18:46:04.884Z,14.90
2023-03-02T18:48:33.521Z,14.10
2023-03-02T18:51:01.692Z,14.73
2023-03-02T18:53:29.920Z,14.07
2023-03-02T18:55:58.371Z,14.27
2023-03-02T18:58:26.997Z,13.90
2023-03-02T19:00:55.729Z,15.10
2023-03-02T19:03:25.658Z,14.07
2023-03-02T19:05:57.622Z,15.20
2023-03-02T19:08:26.804Z,13.77
2023-03-02T19:10:55.785Z,13.87
2023-03-02T19:13:24.061Z,14.17
2023-03-02T19:15:54.859Z,12.73
2023-03-02T19:18:25.932Z,13.30
2023-03-02T19:20:55.598Z,12.30
2023-03-02T19:23:23.762Z,11.73
2023-03-02T19:25:52.085Z,12.23
2023-03-02T19:28:21.560Z,12.33
2023-03-02T19:30:49.846Z,12.17
2023-03-02T19:33:18.466Z,12.07
2023-03-02T19:35:48.101Z,12.40
2023-03-02T19:38:16.265Z,12.20
2023-03-02T19:40:44.418Z,12.33
2023-03-02T19:43:12.631Z,12.27
2023-03-02T19:45:40.879Z,11.70
2023-03-02T19:48:13.540Z,11.77
2023-03-02T19:50:41.887Z,12.10
2023-03-02T19:53:11.455Z,12.13
2023-03-02T19:55:39.806Z,12.70
2023-03-02T19:58:08.053Z,12.40
2023-03-02T20:00:38.284Z,12.67
2023-03-02T20:03:08.502Z,15.33
2023-03-02T20:05:36.758Z,13.60
2023-03-02T20:08:05.049Z,15.67
2023-03-02T20:10:36.290Z,11.80
2023-03-02T20:13:05.244Z,12.97
2023-03-02T20:15:34.660Z,11.33
2023-03-02T20:18:03.373Z,10.40
2023-03-02T20:20:32.465Z,11.10
2023-03-02T20:23:01.075Z,10.83
2023-03-02T20:25:30.061Z,11.30
2023-03-02T20:28:00.025Z,10.73
2023-03-02T20:30:30.771Z,11.20
2023-03-02T20:33:00.329Z,11.43
2023-03-02T20:35:29.518Z,11.63
2023-03-02T20:37:58.408Z,11.23
2023-03-02T20:40:27.340Z,11.77
2023-03-02T20:42:56.037Z,11.00
2023-03-02T20:45:25.570Z,10.53
2023-03-02T20:47:54.138Z,11.27
2023-03-02T20:50:23.675Z,10.73
2023-03-02T20:52:51.962Z,11.17
2023-03-02T20:55:20.616Z,11.13
2023-03-02T20:57:49.559Z,10.43
2023-03-02T21:00:20.667Z,10.43
2023-03-02T21:02:50.839Z,10.53
2023-03-02T21:05:19.886Z,11.10
2023-03-02T21:07:48.571Z,10.97
2023-03-02T21:10:18.400Z,11.07
2023-03-02T21:12:48.262Z,11.27
2023-03-02T21:15:17.350Z,10.83
2023-03-02T21:17:45.610Z,11.03
2023-03-02T21:20:18.325Z,11.00
2023-03-02T21:22:46.936Z,10.70
2023-03-02T21:25:17.048Z,10.67
2023-03-02T21:27:46.195Z,10.57
2023-03-02T21:30:17.544Z,11.07
2023-03-02T21:32:45.722Z,10.70
2023-03-02T21:35:17.100Z,10.63
2023-03-02T21:37:45.341Z,10.97
2023-03-02T21:40:16.167Z,10.27
2023-03-02T21:42:44.397Z,10.50
2023-03-02T21:45:13.306Z,10.50
2023-03-02T21:47:41.933Z,10.50
2023-03-02T21:50:11.258Z,10.50
2023-03-02T21:52:40.901Z,10.43
2023-03-02T21:55:09.588Z,9.83
2023-03-02T21:57:37.840Z,9.37
2023-03-02T22:00:07.235Z,8.90
2023-03-02T22:02:35.512Z,9.07
2023-03-02T22:05:04.631Z,8.50
2023-03-02T22:07:32.879Z,9.50
2023-03-02T22:10:02.518Z,8.90
2023-03-02T22:12:30.851Z,8.67
2023-03-02T22:15:03.913Z,8.10
2023-03-02T22:17:32.207Z,8.80
2023-03-02T22:20:00.492Z,7.97
2023-03-02T22:22:30.867Z,8.37
2023-03-02T22:24:59.102Z,7.70
2023-03-02T22:27:30.108Z,8.27
2023-03-02T22:29:59.283Z,7.83
2023-03-02T22:32:28.688Z,8.20
2023-03-02T22:34:57.948Z,7.10
2023-03-02T22:37:27.108Z,7.93
2023-03-02T22:39:56.510Z,8.10
2023-03-02T22:42:25.711Z,8.20
2023-03-02T22:45:01.111Z,7.87
2023-03-02T22:47:29.424Z,8.50
2023-03-02T22:49:59.553Z,8.87
2023-03-02T22:52:30.270Z,7.53
2023-03-02T22:54:58.436Z,8.27
2023-03-02T22:57:30.565Z,8.97
2023-03-02T23:03:17.438Z,8.60
2023-03-02T23:05:49.073Z,8.40
2023-03-02T23:08:19.655Z,8.13
2023-03-02T23:10:48.422Z,8.47
2023-03-02T23:13:17.798Z,8.90
2023-03-02T23:15:48.411Z,8.93
2023-03-02T23:18:20.613Z,9.23
2023-03-02T23:20:48.976Z,8.27
2023-03-02T23:23:17.363Z,9.20
2023-03-02T23:25:46.143Z,8.37
2023-03-02T23:28:14.291Z,9.40
2023-03-02T23:30:42.585Z,9.20
2023-03-02T23:33:12.078Z,8.67
2023-03-02T23:35:41.856Z,9.43
2023-03-02T23:38:10.060Z,9.10
2023-03-02T23:40:38.670Z,9.07
2023-03-02T23:43:06.848Z,9.30
2023-03-02T23:45:35.052Z,9.53
2023-03-02T23:48:03.308Z,9.43
2023-03-02T23:50:32.812Z,9.27
2023-03-02T23:53:01.203Z,9.43
2023-03-02T23:55:29.522Z,9.40
2023-03-02T23:57:57.813Z,9.83
